sensor_id;sensor_type;location;lat;lon;timestamp;P1;durP1;ratioP1;P2;durP2;ratioP2
54705;SDS011;40603;48.774;8.916;2023-05-07T00:02:24;3.65;;;2.30;;
54705;SDS011;40603;48.774;8.916;2023-05-07T00:04:50;8.80;;;3.75;;
54705;SDS011;40603;48.774;8.916;2023-05-07T00:07:15;2.65;;;2.30;;
54705;SDS011;40603;48.774;8.916;2023-05-07T00:09:41;3.85;;;2.40;;
54705;SDS011;40603;48.774;8.916;2023-05-07T00:12:06;4.90;;;2.20;;
54705;SDS011;40603;48.774;8.916;2023-05-07T00:14:32;3.20;;;2.35;;
54705;SDS011;40603;48.774;8.916;2023-05-07T00:16:57;4.10;;;2.40;;
54705;SDS011;40603;48.774;8.916;2023-05-07T00:19:23;5.13;;;2.20;;
54705;SDS011;40603;48.774;8.916;2023-05-07T00:21:48;3.58;;;2.30;;
54705;SDS011;40603;48.774;8.916;2023-05-07T00:24:13;3.13;;;2.13;;
54705;SDS011;40603;48.774;8.916;2023-05-07T00:26:39;3.70;;;2.47;;
54705;SDS011;40603;48.774;8.916;2023-05-07T00:29:04;2.35;;;1.90;;
54705;SDS011;40603;48.774;8.916;2023-05-07T00:31:29;4.10;;;2.58;;
54705;SDS011;40603;48.774;8.916;2023-05-07T00:33:54;2.85;;;2.25;;
54705;SDS011;40603;48.774;8.916;2023-05-07T00:36:20;4.10;;;2.63;;
54705;SDS011;40603;48.774;8.916;2023-05-07T00:38:45;3.95;;;2.40;;
54705;SDS011;40603;48.774;8.916;2023-05-07T00:41:10;4.10;;;2.58;;
54705;SDS011;40603;48.774;8.916;2023-05-07T00:43:36;3.85;;;2.67;;
54705;SDS011;40603;48.774;8.916;2023-05-07T00:46:01;5.28;;;2.92;;
54705;SDS011;40603;48.774;8.916;2023-05-07T00:48:26;3.08;;;2.63;;
54705;SDS011;40603;48.774;8.916;2023-05-07T00:50:52;4.25;;;2.67;;
54705;SDS011;40603;48.774;8.916;2023-05-07T00:53:17;3.15;;;2.67;;
54705;SDS011;40603;48.774;8.916;2023-05-07T00:55:43;4.45;;;2.88;;
54705;SDS011;40603;48.774;8.916;2023-05-07T00:58:08;5.25;;;2.92;;
54705;SDS011;40603;48.774;8.916;2023-05-07T01:00:33;3.20;;;2.58;;
54705;SDS011;40603;48.774;8.916;2023-05-07T01:02:59;4.07;;;2.67;;
54705;SDS011;40603;48.774;8.916;2023-05-07T01:05:24;3.97;;;2.50;;
54705;SDS011;40603;48.774;8.916;2023-05-07T01:07:51;3.83;;;3.10;;
54705;SDS011;40603;48.774;8.916;2023-05-07T01:10:18;5.90;;;2.85;;
54705;SDS011;40603;48.774;8.916;2023-05-07T01:12:43;6.40;;;3.88;;
54705;SDS011;40603;48.774;8.916;2023-05-07T01:15:09;5.38;;;2.92;;
54705;SDS011;40603;48.774;8.916;2023-05-07T01:17:35;6.45;;;2.90;;
54705;SDS011;40603;48.774;8.916;2023-05-07T01:20:01;5.22;;;3.17;;
54705;SDS011;40603;48.774;8.916;2023-05-07T01:22:28;6.10;;;3.42;;
54705;SDS011;40603;48.774;8.916;2023-05-07T01:24:56;4.40;;;3.22;;
54705;SDS011;40603;48.774;8.916;2023-05-07T01:27:24;4.38;;;3.28;;
54705;SDS011;40603;48.774;8.916;2023-05-07T01:29:49;5.18;;;2.97;;
54705;SDS011;40603;48.774;8.916;2023-05-07T01:32:15;6.28;;;3.22;;
54705;SDS011;40603;48.774;8.916;2023-05-07T01:34:44;4.20;;;3.08;;
54705;SDS011;40603;48.774;8.916;2023-05-07T01:37:11;7.00;;;3.40;;
54705;SDS011;40603;48.774;8.916;2023-05-07T01:39:37;6.65;;;3.38;;
54705;SDS011;40603;48.774;8.916;2023-05-07T01:42:04;4.82;;;3.15;;
54705;SDS011;40603;48.774;8.916;2023-05-07T01:44:29;6.22;;;3.13;;
54705;SDS011;40603;48.774;8.916;2023-05-07T01:46:54;5.68;;;3.65;;
54705;SDS011;40603;48.774;8.916;2023-05-07T01:49:20;4.80;;;3.00;;
54705;SDS011;40603;48.774;8.916;2023-05-07T01:51:46;4.65;;;3.03;;
54705;SDS011;40603;48.774;8.916;2023-05-07T01:54:11;5.55;;;2.97;;
54705;SDS011;40603;48.774;8.916;2023-05-07T01:56:37;4.32;;;2.88;;
54705;SDS011;40603;48.774;8.916;2023-05-07T01:59:02;8.32;;;3.30;;
54705;SDS011;40603;48.774;8.916;2023-05-07T02:01:27;8.13;;;3.40;;
54705;SDS011;40603;48.774;8.916;2023-05-07T02:03:53;5.45;;;2.80;;
54705;SDS011;40603;48.774;8.916;2023-05-07T02:06:18;6.97;;;2.80;;
54705;SDS011;40603;48.774;8.916;2023-05-07T02:08:44;4.05;;;2.50;;
54705;SDS011;40603;48.774;8.916;2023-05-07T02:11:09;4.28;;;2.80;;
54705;SDS011;40603;48.774;8.916;2023-05-07T02:13:36;6.63;;;2.28;;
54705;SDS011;40603;48.774;8.916;2023-05-07T02:16:01;5.43;;;2.65;;
54705;SDS011;40603;48.774;8.916;2023-05-07T02:18:27;6.07;;;2.17;;
54705;SDS011;40603;48.774;8.916;2023-05-07T02:20:52;10.00;;;2.50;;
54705;SDS011;40603;48.774;8.916;2023-05-07T02:23:18;2.17;;;1.80;;
54705;SDS011;40603;48.774;8.916;2023-05-07T02:25:43;3.38;;;2.20;;
54705;SDS011;40603;48.774;8.916;2023-05-07T02:28:08;6.60;;;3.05;;
54705;SDS011;40603;48.774;8.916;2023-05-07T02:30:33;3.55;;;2.65;;
54705;SDS011;40603;48.774;8.916;2023-05-07T02:32:59;3.78;;;2.53;;
54705;SDS011;40603;48.774;8.916;2023-05-07T02:35:24;4.05;;;2.80;;
54705;SDS011;40603;48.774;8.916;2023-05-07T02:37:50;3.97;;;2.50;;
54705;SDS011;40603;48.774;8.916;2023-05-07T02:40:16;3.78;;;2.75;;
54705;SDS011;40603;48.774;8.916;2023-05-07T02:42:41;3.67;;;2.60;;
54705;SDS011;40603;48.774;8.916;2023-05-07T02:45:06;5.15;;;2.58;;
54705;SDS011;40603;48.774;8.916;2023-05-07T02:47:32;5.05;;;2.80;;
54705;SDS011;40603;48.774;8.916;2023-05-07T02:49:57;4.75;;;2.33;;
54705;SDS011;40603;48.774;8.916;2023-05-07T02:52:23;3.83;;;2.63;;
54705;SDS011;40603;48.774;8.916;2023-05-07T02:54:48;5.60;;;3.00;;
54705;SDS011;40603;48.774;8.916;2023-05-07T02:57:13;3.88;;;2.83;;
54705;SDS011;40603;48.774;8.916;2023-05-07T02:59:39;5.43;;;2.60;;
54705;SDS011;40603;48.774;8.916;2023-05-07T03:02:05;3.08;;;2.63;;
54705;SDS011;40603;48.774;8.916;2023-05-07T03:04:30;8.18;;;3.17;;
54705;SDS011;40603;48.774;8.916;2023-05-07T03:06:55;4.70;;;2.90;;
54705;SDS011;40603;48.774;8.916;2023-05-07T03:09:21;5.18;;;2.92;;
54705;SDS011;40603;48.774;8.916;2023-05-07T03:11:46;6.72;;;3.10;;
54705;SDS011;40603;48.774;8.916;2023-05-07T03:14:11;5.85;;;3.45;;
54705;SDS011;40603;48.774;8.916;2023-05-07T03:16:37;6.45;;;3.20;;
54705;SDS011;40603;48.774;8.916;2023-05-07T03:19:03;5.10;;;2.83;;
54705;SDS011;40603;48.774;8.916;2023-05-07T03:21:28;4.72;;;2.85;;
54705;SDS011;40603;48.774;8.916;2023-05-07T03:23:53;4.30;;;2.80;;
54705;SDS011;40603;48.774;8.916;2023-05-07T03:26:18;4.47;;;2.90;;
54705;SDS011;40603;48.774;8.916;2023-05-07T03:28:44;5.95;;;3.25;;
54705;SDS011;40603;48.774;8.916;2023-05-07T03:31:10;4.25;;;3.35;;
54705;SDS011;40603;48.774;8.916;2023-05-07T03:33:35;4.65;;;3.33;;
54705;SDS011;40603;48.774;8.916;2023-05-07T03:36:07;4.55;;;3.33;;
54705;SDS011;40603;48.774;8.916;2023-05-07T03:38:33;9.52;;;3.47;;
54705;SDS011;40603;48.774;8.916;2023-05-07T03:40:58;7.47;;;3.60;;
54705;SDS011;40603;48.774;8.916;2023-05-07T03:43:23;5.07;;;3.33;;
54705;SDS011;40603;48.774;8.916;2023-05-07T03:45:49;6.78;;;3.08;;
54705;SDS011;40603;48.774;8.916;2023-05-07T03:48:14;6.65;;;3.15;;
54705;SDS011;40603;48.774;8.916;2023-05-07T03:50:39;6.25;;;3.58;;
54705;SDS011;40603;48.774;8.916;2023-05-07T03:53:05;4.45;;;2.90;;
54705;SDS011;40603;48.774;8.916;2023-05-07T03:55:30;3.83;;;2.72;;
54705;SDS011;40603;48.774;8.916;2023-05-07T03:57:55;3.00;;;2.70;;
54705;SDS011;40603;48.774;8.916;2023-05-07T04:00:21;4.15;;;3.22;;
54705;SDS011;40603;48.774;8.916;2023-05-07T04:02:47;4.07;;;2.72;;
54705;SDS011;40603;48.774;8.916;2023-05-07T04:05:12;7.15;;;3.30;;
54705;SDS011;40603;48.774;8.916;2023-05-07T04:07:38;5.40;;;3.28;;
54705;SDS011;40603;48.774;8.916;2023-05-07T04:10:04;6.47;;;3.00;;
54705;SDS011;40603;48.774;8.916;2023-05-07T04:12:29;4.30;;;2.65;;
54705;SDS011;40603;48.774;8.916;2023-05-07T04:14:55;7.00;;;3.25;;
54705;SDS011;40603;48.774;8.916;2023-05-07T04:17:20;9.57;;;3.20;;
54705;SDS011;40603;48.774;8.916;2023-05-07T04:19:46;5.30;;;3.00;;
54705;SDS011;40603;48.774;8.916;2023-05-07T04:22:11;4.82;;;3.17;;
54705;SDS011;40603;48.774;8.916;2023-05-07T04:24:37;5.40;;;3.15;;
54705;SDS011;40603;48.774;8.916;2023-05-07T04:27:02;5.63;;;3.40;;
54705;SDS011;40603;48.774;8.916;2023-05-07T04:29:27;3.85;;;3.20;;
54705;SDS011;40603;48.774;8.916;2023-05-07T04:31:53;7.68;;;4.22;;
54705;SDS011;40603;48.774;8.916;2023-05-07T04:34:20;4.63;;;3.03;;
54705;SDS011;40603;48.774;8.916;2023-05-07T04:36:46;4.38;;;3.05;;
54705;SDS011;40603;48.774;8.916;2023-05-07T04:39:11;4.22;;;3.00;;
54705;SDS011;40603;48.774;8.916;2023-05-07T04:41:37;5.18;;;3.30;;
54705;SDS011;40603;48.774;8.916;2023-05-07T04:44:02;4.72;;;3.13;;
54705;SDS011;40603;48.774;8.916;2023-05-07T04:46:28;5.18;;;3.20;;
54705;SDS011;40603;48.774;8.916;2023-05-07T04:48:54;4.72;;;3.00;;
54705;SDS011;40603;48.774;8.916;2023-05-07T04:51:19;10.35;;;3.60;;
54705;SDS011;40603;48.774;8.916;2023-05-07T04:53:44;4.25;;;3.28;;
54705;SDS011;40603;48.774;8.916;2023-05-07T04:56:10;3.65;;;3.25;;
54705;SDS011;40603;48.774;8.916;2023-05-07T04:58:35;6.43;;;3.00;;
54705;SDS011;40603;48.774;8.916;2023-05-07T05:01:01;6.60;;;3.50;;
54705;SDS011;40603;48.774;8.916;2023-05-07T05:03:26;7.82;;;3.33;;
54705;SDS011;40603;48.774;8.916;2023-05-07T05:05:52;4.35;;;3.17;;
54705;SDS011;40603;48.774;8.916;2023-05-07T05:08:18;3.53;;;2.97;;
54705;SDS011;40603;48.774;8.916;2023-05-07T05:10:43;7.65;;;3.38;;
54705;SDS011;40603;48.774;8.916;2023-05-07T05:13:09;4.95;;;3.35;;
54705;SDS011;40603;48.774;8.916;2023-05-07T05:15:34;5.45;;;3.28;;
54705;SDS011;40603;48.774;8.916;2023-05-07T05:18:00;5.93;;;3.20;;
54705;SDS011;40603;48.774;8.916;2023-05-07T05:20:25;7.25;;;3.45;;
54705;SDS011;40603;48.774;8.916;2023-05-07T05:22:50;4.13;;;3.08;;
54705;SDS011;40603;48.774;8.916;2023-05-07T05:25:16;4.95;;;3.33;;
54705;SDS011;40603;48.774;8.916;2023-05-07T05:27:41;4.65;;;3.47;;
54705;SDS011;40603;48.774;8.916;2023-05-07T05:30:06;5.63;;;4.13;;
54705;SDS011;40603;48.774;8.916;2023-05-07T05:32:32;4.45;;;3.53;;
54705;SDS011;40603;48.774;8.916;2023-05-07T05:34:57;6.00;;;3.78;;
54705;SDS011;40603;48.774;8.916;2023-05-07T05:37:22;7.18;;;3.78;;
54705;SDS011;40603;48.774;8.916;2023-05-07T05:39:48;3.80;;;3.40;;
54705;SDS011;40603;48.774;8.916;2023-05-07T05:42:13;5.72;;;4.03;;
54705;SDS011;40603;48.774;8.916;2023-05-07T05:44:38;9.20;;;3.58;;
54705;SDS011;40603;48.774;8.916;2023-05-07T05:47:04;7.07;;;3.75;;
54705;SDS011;40603;48.774;8.916;2023-05-07T05:49:29;5.15;;;4.20;;
54705;SDS011;40603;48.774;8.916;2023-05-07T05:51:54;5.30;;;3.92;;
54705;SDS011;40603;48.774;8.916;2023-05-07T05:54:20;6.38;;;3.70;;
54705;SDS011;40603;48.774;8.916;2023-05-07T05:56:46;7.78;;;4.22;;
54705;SDS011;40603;48.774;8.916;2023-05-07T05:59:11;6.63;;;4.22;;
54705;SDS011;40603;48.774;8.916;2023-05-07T06:01:36;7.15;;;4.05;;
54705;SDS011;40603;48.774;8.916;2023-05-07T06:04:02;5.97;;;4.45;;
54705;SDS011;40603;48.774;8.916;2023-05-07T06:06:27;6.18;;;4.18;;
54705;SDS011;40603;48.774;8.916;2023-05-07T06:08:53;6.40;;;4.10;;
54705;SDS011;40603;48.774;8.916;2023-05-07T06:11:18;5.63;;;3.80;;
54705;SDS011;40603;48.774;8.916;2023-05-07T06:13:43;6.13;;;3.70;;
54705;SDS011;40603;48.774;8.916;2023-05-07T06:16:08;4.95;;;3.60;;
54705;SDS011;40603;48.774;8.916;2023-05-07T06:18:34;4.95;;;3.90;;
54705;SDS011;40603;48.774;8.916;2023-05-07T06:21:01;4.43;;;3.67;;
54705;SDS011;40603;48.774;8.916;2023-05-07T06:23:26;9.35;;;3.95;;
54705;SDS011;40603;48.774;8.916;2023-05-07T06:25:51;6.22;;;4.22;;
54705;SDS011;40603;48.774;8.916;2023-05-07T06:28:17;4.35;;;3.83;;
54705;SDS011;40603;48.774;8.916;2023-05-07T06:30:42;3.90;;;3.45;;
54705;SDS011;40603;48.774;8.916;2023-05-07T06:33:07;7.32;;;3.95;;
54705;SDS011;40603;48.774;8.916;2023-05-07T06:35:33;5.35;;;4.13;;
54705;SDS011;40603;48.774;8.916;2023-05-07T06:37:59;7.35;;;4.47;;
54705;SDS011;40603;48.774;8.916;2023-05-07T06:40:24;5.47;;;4.40;;
54705;SDS011;40603;48.774;8.916;2023-05-07T06:42:50;5.57;;;4.05;;
54705;SDS011;40603;48.774;8.916;2023-05-07T06:45:15;5.65;;;4.13;;
54705;SDS011;40603;48.774;8.916;2023-05-07T06:47:40;8.88;;;4.50;;
54705;SDS011;40603;48.774;8.916;2023-05-07T06:50:06;5.20;;;4.35;;
54705;SDS011;40603;48.774;8.916;2023-05-07T06:52:31;4.22;;;3.83;;
54705;SDS011;40603;48.774;8.916;2023-05-07T06:54:57;6.10;;;3.70;;
54705;SDS011;40603;48.774;8.916;2023-05-07T06:57:22;7.72;;;3.85;;
54705;SDS011;40603;48.774;8.916;2023-05-07T06:59:47;5.70;;;3.58;;
54705;SDS011;40603;48.774;8.916;2023-05-07T07:02:13;5.13;;;3.90;;
54705;SDS011;40603;48.774;8.916;2023-05-07T07:04:38;5.65;;;3.47;;
54705;SDS011;40603;48.774;8.916;2023-05-07T07:07:03;6.47;;;4.10;;
54705;SDS011;40603;48.774;8.916;2023-05-07T07:09:29;4.90;;;4.07;;
54705;SDS011;40603;48.774;8.916;2023-05-07T07:11:54;7.38;;;3.35;;
54705;SDS011;40603;48.774;8.916;2023-05-07T07:14:19;5.22;;;3.83;;
54705;SDS011;40603;48.774;8.916;2023-05-07T07:16:45;8.30;;;3.67;;
54705;SDS011;40603;48.774;8.916;2023-05-07T07:19:11;6.70;;;3.83;;
54705;SDS011;40603;48.774;8.916;2023-05-07T07:21:37;5.13;;;3.25;;
54705;SDS011;40603;48.774;8.916;2023-05-07T07:24:02;6.03;;;3.30;;
54705;SDS011;40603;48.774;8.916;2023-05-07T07:26:27;6.82;;;3.25;;
54705;SDS011;40603;48.774;8.916;2023-05-07T07:28:53;5.82;;;3.10;;
54705;SDS011;40603;48.774;8.916;2023-05-07T07:31:18;5.72;;;2.97;;
54705;SDS011;40603;48.774;8.916;2023-05-07T07:33:43;3.05;;;2.75;;
54705;SDS011;40603;48.774;8.916;2023-05-07T07:36:09;5.68;;;3.08;;
54705;SDS011;40603;48.774;8.916;2023-05-07T07:38:34;3.80;;;2.65;;
54705;SDS011;40603;48.774;8.916;2023-05-07T07:41:00;5.25;;;3.10;;
54705;SDS011;40603;48.774;8.916;2023-05-07T07:43:25;9.60;;;3.50;;
54705;SDS011;40603;48.774;8.916;2023-05-07T07:45:50;5.28;;;3.10;;
54705;SDS011;40603;48.774;8.916;2023-05-07T07:48:16;2.85;;;2.55;;
54705;SDS011;40603;48.774;8.916;2023-05-07T07:50:41;4.82;;;3.08;;
54705;SDS011;40603;48.774;8.916;2023-05-07T07:53:06;8.90;;;2.78;;
54705;SDS011;40603;48.774;8.916;2023-05-07T07:55:32;5.00;;;2.53;;
54705;SDS011;40603;48.774;8.916;2023-05-07T07:57:57;2.70;;;2.50;;
54705;SDS011;40603;48.774;8.916;2023-05-07T08:00:22;4.45;;;2.63;;
54705;SDS011;40603;48.774;8.916;2023-05-07T08:02:48;4.63;;;2.60;;
54705;SDS011;40603;48.774;8.916;2023-05-07T08:05:13;5.18;;;2.85;;
54705;SDS011;40603;48.774;8.916;2023-05-07T08:07:40;4.03;;;2.85;;
54705;SDS011;40603;48.774;8.916;2023-05-07T08:10:05;2.92;;;2.60;;
54705;SDS011;40603;48.774;8.916;2023-05-07T08:12:31;3.03;;;2.33;;
54705;SDS011;40603;48.774;8.916;2023-05-07T08:14:56;3.65;;;2.60;;
54705;SDS011;40603;48.774;8.916;2023-05-07T08:17:21;4.50;;;2.80;;
54705;SDS011;40603;48.774;8.916;2023-05-07T08:19:47;5.88;;;2.42;;
54705;SDS011;40603;48.774;8.916;2023-05-07T08:22:12;5.40;;;2.85;;
54705;SDS011;40603;48.774;8.916;2023-05-07T08:24:38;5.07;;;2.45;;
54705;SDS011;40603;48.774;8.916;2023-05-07T08:27:03;5.85;;;2.28;;
54705;SDS011;40603;48.774;8.916;2023-05-07T08:29:28;3.58;;;2.20;;
54705;SDS011;40603;48.774;8.916;2023-05-07T08:31:54;2.25;;;2.03;;
54705;SDS011;40603;48.774;8.916;2023-05-07T08:34:20;4.32;;;2.38;;
54705;SDS011;40603;48.774;8.916;2023-05-07T08:36:46;2.88;;;1.90;;
54705;SDS011;40603;48.774;8.916;2023-05-07T08:39:13;2.97;;;2.10;;
54705;SDS011;40603;48.774;8.916;2023-05-07T08:41:38;2.25;;;1.80;;
54705;SDS011;40603;48.774;8.916;2023-05-07T08:44:04;5.97;;;2.17;;
54705;SDS011;40603;48.774;8.916;2023-05-07T08:46:31;2.97;;;2.20;;
54705;SDS011;40603;48.774;8.916;2023-05-07T08:48:57;5.05;;;2.25;;
54705;SDS011;40603;48.774;8.916;2023-05-07T08:51:22;5.07;;;2.15;;
54705;SDS011;40603;48.774;8.916;2023-05-07T08:53:48;3.97;;;2.00;;
54705;SDS011;40603;48.774;8.916;2023-05-07T08:56:14;3.13;;;1.92;;
54705;SDS011;40603;48.774;8.916;2023-05-07T08:58:40;2.80;;;1.80;;
54705;SDS011;40603;48.774;8.916;2023-05-07T09:01:13;3.65;;;2.10;;
54705;SDS011;40603;48.774;8.916;2023-05-07T09:03:39;2.33;;;1.83;;
54705;SDS011;40603;48.774;8.916;2023-05-07T09:06:05;2.90;;;1.95;;
54705;SDS011;40603;48.774;8.916;2023-05-07T09:08:32;3.17;;;1.77;;
54705;SDS011;40603;48.774;8.916;2023-05-07T09:10:58;2.00;;;1.73;;
54705;SDS011;40603;48.774;8.916;2023-05-07T09:13:23;3.85;;;1.60;;
54705;SDS011;40603;48.774;8.916;2023-05-07T09:15:48;2.53;;;1.90;;
54705;SDS011;40603;48.774;8.916;2023-05-07T09:18:14;2.42;;;1.58;;
54705;SDS011;40603;48.774;8.916;2023-05-07T09:20:39;2.42;;;1.77;;
54705;SDS011;40603;48.774;8.916;2023-05-07T09:23:05;2.63;;;1.80;;
54705;SDS011;40603;48.774;8.916;2023-05-07T09:25:33;2.40;;;1.85;;
54705;SDS011;40603;48.774;8.916;2023-05-07T09:27:59;2.45;;;1.60;;
54705;SDS011;40603;48.774;8.916;2023-05-07T09:30:32;6.50;;;1.90;;
54705;SDS011;40603;48.774;8.916;2023-05-07T09:32:58;1.88;;;1.65;;
54705;SDS011;40603;48.774;8.916;2023-05-07T09:35:24;2.88;;;1.63;;
54705;SDS011;40603;48.774;8.916;2023-05-07T09:37:52;4.28;;;2.00;;
54705;SDS011;40603;48.774;8.916;2023-05-07T09:40:28;3.55;;;1.70;;
54705;SDS011;40603;48.774;8.916;2023-05-07T09:42:54;4.00;;;1.80;;
54705;SDS011;40603;48.774;8.916;2023-05-07T09:45:26;2.00;;;1.75;;
54705;SDS011;40603;48.774;8.916;2023-05-07T09:47:56;3.08;;;2.05;;
54705;SDS011;40603;48.774;8.916;2023-05-07T09:50:26;2.72;;;1.60;;
54705;SDS011;40603;48.774;8.916;2023-05-07T09:52:55;3.47;;;1.70;;
54705;SDS011;40603;48.774;8.916;2023-05-07T09:55:21;4.63;;;1.88;;
54705;SDS011;40603;48.774;8.916;2023-05-07T09:57:49;4.32;;;2.20;;
54705;SDS011;40603;48.774;8.916;2023-05-07T10:00:15;2.22;;;1.92;;
54705;SDS011;40603;48.774;8.916;2023-05-07T10:02:40;3.33;;;1.80;;
54705;SDS011;40603;48.774;8.916;2023-05-07T10:05:11;3.88;;;1.83;;
54705;SDS011;40603;48.774;8.916;2023-05-07T10:07:37;2.70;;;1.73;;
54705;SDS011;40603;48.774;8.916;2023-05-07T10:10:03;2.90;;;1.80;;
54705;SDS011;40603;48.774;8.916;2023-05-07T10:12:29;4.20;;;1.90;;
54705;SDS011;40603;48.774;8.916;2023-05-07T10:14:55;5.40;;;2.30;;
54705;SDS011;40603;48.774;8.916;2023-05-07T10:17:21;3.38;;;1.88;;
54705;SDS011;40603;48.774;8.916;2023-05-07T10:19:47;2.15;;;1.70;;
54705;SDS011;40603;48.774;8.916;2023-05-07T10:22:14;5.32;;;1.73;;
54705;SDS011;40603;48.774;8.916;2023-05-07T10:24:40;8.40;;;1.95;;
54705;SDS011;40603;48.774;8.916;2023-05-07T10:27:10;3.72;;;2.17;;
54705;SDS011;40603;48.774;8.916;2023-05-07T10:29:37;2.38;;;1.45;;
54705;SDS011;40603;48.774;8.916;2023-05-07T10:34:50;3.50;;;1.60;;
54705;SDS011;40603;48.774;8.916;2023-05-07T10:37:18;3.47;;;1.98;;
54705;SDS011;40603;48.774;8.916;2023-05-07T10:39:44;2.63;;;1.77;;
54705;SDS011;40603;48.774;8.916;2023-05-07T10:42:10;2.10;;;1.42;;
54705;SDS011;40603;48.774;8.916;2023-05-07T10:44:36;4.40;;;2.38;;
54705;SDS011;40603;48.774;8.916;2023-05-07T10:52:12;4.80;;;1.50;;
54705;SDS011;40603;48.774;8.916;2023-05-07T10:54:42;3.00;;;2.00;;
54705;SDS011;40603;48.774;8.916;2023-05-07T10:59:55;4.35;;;2.05;;
54705;SDS011;40603;48.774;8.916;2023-05-07T11:02:21;2.97;;;1.90;;
54705;SDS011;40603;48.774;8.916;2023-05-07T11:04:57;4.82;;;2.45;;
54705;SDS011;40603;48.774;8.916;2023-05-07T11:07:44;2.65;;;1.80;;
54705;SDS011;40603;48.774;8.916;2023-05-07T11:10:19;2.63;;;1.83;;
54705;SDS011;40603;48.774;8.916;2023-05-07T11:15:11;3.17;;;2.08;;
54705;SDS011;40603;48.774;8.916;2023-05-07T11:17:54;2.67;;;2.20;;
54705;SDS011;40603;48.774;8.916;2023-05-07T11:20:20;3.55;;;2.85;;
54705;SDS011;40603;48.774;8.916;2023-05-07T11:22:46;4.40;;;2.30;;
54705;SDS011;40603;48.774;8.916;2023-05-07T11:25:17;2.95;;;2.65;;
54705;SDS011;40603;48.774;8.916;2023-05-07T11:27:43;2.95;;;2.30;;
54705;SDS011;40603;48.774;8.916;2023-05-07T11:30:09;5.68;;;2.95;;
54705;SDS011;40603;48.774;8.916;2023-05-07T11:32:35;8.35;;;2.80;;
54705;SDS011;40603;48.774;8.916;2023-05-07T11:35:01;2.90;;;2.28;;
54705;SDS011;40603;48.774;8.916;2023-05-07T11:37:27;4.35;;;2.38;;
54705;SDS011;40603;48.774;8.916;2023-05-07T11:40:01;3.25;;;2.47;;
54705;SDS011;40603;48.774;8.916;2023-05-07T11:42:29;3.70;;;2.58;;
54705;SDS011;40603;48.774;8.916;2023-05-07T11:44:56;4.97;;;2.50;;
54705;SDS011;40603;48.774;8.916;2023-05-07T11:47:21;4.05;;;2.42;;
54705;SDS011;40603;48.774;8.916;2023-05-07T11:49:47;3.70;;;2.42;;
54705;SDS011;40603;48.774;8.916;2023-05-07T11:52:13;4.07;;;2.63;;
54705;SDS011;40603;48.774;8.916;2023-05-07T11:54:38;6.53;;;2.97;;
54705;SDS011;40603;48.774;8.916;2023-05-07T11:57:04;3.00;;;2.25;;
54705;SDS011;40603;48.774;8.916;2023-05-07T11:59:30;3.80;;;2.65;;
54705;SDS011;40603;48.774;8.916;2023-05-07T12:02:03;3.78;;;2.40;;
54705;SDS011;40603;48.774;8.916;2023-05-07T12:04:29;2.47;;;2.25;;
54705;SDS011;40603;48.774;8.916;2023-05-07T12:06:55;5.10;;;2.83;;
54705;SDS011;40603;48.774;8.916;2023-05-07T12:09:23;3.25;;;2.50;;
54705;SDS011;40603;48.774;8.916;2023-05-07T12:11:48;6.10;;;1.95;;
54705;SDS011;40603;48.774;8.916;2023-05-07T12:14:13;6.57;;;2.03;;
54705;SDS011;40603;48.774;8.916;2023-05-07T12:16:40;3.80;;;1.60;;
54705;SDS011;40603;48.774;8.916;2023-05-07T12:19:06;4.45;;;1.77;;
54705;SDS011;40603;48.774;8.916;2023-05-07T12:21:33;6.32;;;2.05;;
54705;SDS011;40603;48.774;8.916;2023-05-07T12:23:59;5.80;;;2.40;;
54705;SDS011;40603;48.774;8.916;2023-05-07T12:26:25;2.67;;;2.03;;
54705;SDS011;40603;48.774;8.916;2023-05-07T12:28:50;3.08;;;1.88;;
54705;SDS011;40603;48.774;8.916;2023-05-07T12:31:16;3.95;;;2.00;;
54705;SDS011;40603;48.774;8.916;2023-05-07T12:33:41;3.33;;;1.98;;
54705;SDS011;40603;48.774;8.916;2023-05-07T12:36:07;4.00;;;2.10;;
54705;SDS011;40603;48.774;8.916;2023-05-07T12:38:39;4.20;;;2.15;;
54705;SDS011;40603;48.774;8.916;2023-05-07T12:41:06;5.50;;;2.05;;
54705;SDS011;40603;48.774;8.916;2023-05-07T12:43:32;3.53;;;2.90;;
54705;SDS011;40603;48.774;8.916;2023-05-07T12:45:59;6.40;;;3.25;;
54705;SDS011;40603;48.774;8.916;2023-05-07T12:48:27;7.03;;;2.60;;
54705;SDS011;40603;48.774;8.916;2023-05-07T12:50:53;2.75;;;1.80;;
54705;SDS011;40603;48.774;8.916;2023-05-07T12:53:20;3.10;;;1.80;;
54705;SDS011;40603;48.774;8.916;2023-05-07T12:55:56;8.05;;;2.03;;
54705;SDS011;40603;48.774;8.916;2023-05-07T13:00:55;5.85;;;2.30;;
54705;SDS011;40603;48.774;8.916;2023-05-07T13:03:27;5.75;;;1.85;;
54705;SDS011;40603;48.774;8.916;2023-05-07T13:05:55;4.65;;;2.25;;
54705;SDS011;40603;48.774;8.916;2023-05-07T13:10:50;5.45;;;2.13;;
54705;SDS011;40603;48.774;8.916;2023-05-07T13:13:15;6.75;;;2.88;;
54705;SDS011;40603;48.774;8.916;2023-05-07T13:15:41;4.80;;;1.73;;
54705;SDS011;40603;48.774;8.916;2023-05-07T13:18:06;5.63;;;1.80;;
54705;SDS011;40603;48.774;8.916;2023-05-07T13:20:31;3.10;;;2.10;;
54705;SDS011;40603;48.774;8.916;2023-05-07T13:22:57;4.38;;;1.90;;
54705;SDS011;40603;48.774;8.916;2023-05-07T13:25:22;5.97;;;2.22;;
54705;SDS011;40603;48.774;8.916;2023-05-07T13:27:47;4.10;;;2.38;;
54705;SDS011;40603;48.774;8.916;2023-05-07T13:30:13;3.00;;;1.98;;
54705;SDS011;40603;48.774;8.916;2023-05-07T13:32:38;4.53;;;2.60;;
54705;SDS011;40603;48.774;8.916;2023-05-07T13:35:03;7.10;;;2.28;;
54705;SDS011;40603;48.774;8.916;2023-05-07T13:37:29;6.70;;;3.42;;
54705;SDS011;40603;48.774;8.916;2023-05-07T13:39:54;2.78;;;1.80;;
54705;SDS011;40603;48.774;8.916;2023-05-07T13:42:20;3.83;;;1.98;;
54705;SDS011;40603;48.774;8.916;2023-05-07T13:44:45;4.95;;;1.88;;
54705;SDS011;40603;48.774;8.916;2023-05-07T13:47:11;3.58;;;1.75;;
54705;SDS011;40603;48.774;8.916;2023-05-07T13:49:36;5.97;;;1.90;;
54705;SDS011;40603;48.774;8.916;2023-05-07T13:52:01;2.03;;;1.80;;
54705;SDS011;40603;48.774;8.916;2023-05-07T13:54:27;1.70;;;1.60;;
54705;SDS011;40603;48.774;8.916;2023-05-07T13:56:52;2.60;;;1.92;;
54705;SDS011;40603;48.774;8.916;2023-05-07T13:59:18;5.55;;;1.65;;
54705;SDS011;40603;48.774;8.916;2023-05-07T14:01:43;2.75;;;1.75;;
54705;SDS011;40603;48.774;8.916;2023-05-07T14:04:08;2.30;;;1.95;;
54705;SDS011;40603;48.774;8.916;2023-05-07T14:06:33;7.07;;;2.17;;
54705;SDS011;40603;48.774;8.916;2023-05-07T14:08:59;2.33;;;1.98;;
54705;SDS011;40603;48.774;8.916;2023-05-07T14:11:25;2.15;;;1.95;;
54705;SDS011;40603;48.774;8.916;2023-05-07T14:13:50;4.45;;;2.63;;
54705;SDS011;40603;48.774;8.916;2023-05-07T14:16:15;4.82;;;2.00;;
54705;SDS011;40603;48.774;8.916;2023-05-07T14:18:40;4.03;;;2.40;;
54705;SDS011;40603;48.774;8.916;2023-05-07T14:21:06;4.32;;;2.00;;
54705;SDS011;40603;48.774;8.916;2023-05-07T14:23:31;6.63;;;2.60;;
54705;SDS011;40603;48.774;8.916;2023-05-07T14:25:57;5.30;;;2.58;;
54705;SDS011;40603;48.774;8.916;2023-05-07T14:28:23;6.63;;;2.78;;
54705;SDS011;40603;48.774;8.916;2023-05-07T14:30:48;2.95;;;2.55;;
54705;SDS011;40603;48.774;8.916;2023-05-07T14:33:14;10.00;;;3.10;;
54705;SDS011;40603;48.774;8.916;2023-05-07T14:35:39;3.45;;;2.83;;
54705;SDS011;40603;48.774;8.916;2023-05-07T14:38:04;5.68;;;3.00;;
54705;SDS011;40603;48.774;8.916;2023-05-07T14:40:30;3.97;;;2.60;;
54705;SDS011;40603;48.774;8.916;2023-05-07T14:42:55;5.63;;;3.08;;
54705;SDS011;40603;48.774;8.916;2023-05-07T14:45:22;9.60;;;2.80;;
54705;SDS011;40603;48.774;8.916;2023-05-07T14:47:47;7.45;;;2.60;;
54705;SDS011;40603;48.774;8.916;2023-05-07T14:50:12;6.03;;;2.80;;
54705;SDS011;40603;48.774;8.916;2023-05-07T14:52:37;7.82;;;2.38;;
54705;SDS011;40603;48.774;8.916;2023-05-07T14:55:03;3.10;;;2.00;;
54705;SDS011;40603;48.774;8.916;2023-05-07T14:57:29;4.20;;;2.13;;
54705;SDS011;40603;48.774;8.916;2023-05-07T14:59:55;4.10;;;2.45;;